Time;durP1;ratioP1;P1;durP2;ratioP2;P2;SDS_P1;SDS_P2;PMS_P1;PMS_P2;Temp;Humidity;BMP_temperature;BMP_pressure;BME280_temperature;BME280_humidity;BME280_pressure;Samples;Min_cycle;Max_cycle;Signal;HPM_P1;HPM_P2
2024/02/21 00:02:08;;;;;;;119.07;82.95;;;;;;;;;;5011649;28;20026;-53
2024/02/21 00:04:36;;;;;;;118.05;83.78;;;;;;;;;;5011569;28;20462;-51
2024/02/21 00:07:02;;;;;;;118.90;81.93;;;;;;;;;;5011512;28;20504;-54
2024/02/21 00:09:28;;;;;;;114.95;81.22;;;;;;;;;;5008647;28;20519;-54
2024/02/21 00:11:54;;;;;;;118.38;81.63;;;;;;;;;;5010723;28;20034;-49
2024/02/21 00:14:20;;;;;;;115.32;83.90;;;;;;;;;;5005664;28;20033;-54
2024/02/21 00:16:46;;;;;;;125.53;84.85;;;;;;;;;;5002878;28;20117;-55
2024/02/21 00:19:12;;;;;;;122.30;81.82;;;;;;;;;;5004434;28;20124;-50
2024/02/21 00:21:38;;;;;;;119.85;81.10;;;;;;;;;;5011598;28;20399;-53
2024/02/21 00:24:04;;;;;;;123.60;83.53;;;;;;;;;;5000031;28;20034;-52
2024/02/21 00:26:30;;;;;;;118.82;83.50;;;;;;;;;;4998944;28;20045;-54
2024/02/21 00:28:56;;;;;;;119.38;82.43;;;;;;;;;;5010547;28;20042;-52
2024/02/21 00:31:22;;;;;;;113.47;79.18;;;;;;;;;;5011194;28;20120;-50
2024/02/21 00:33:48;;;;;;;119.38;80.25;;;;;;;;;;5010013;28;20034;-50
2024/02/21 00:36:15;;;;;;;111.55;80.18;;;;;;;;;;5009525;28;20041;-50
2024/02/21 00:38:41;;;;;;;113.10;80.78;;;;;;;;;;5008726;28;20140;-54
2024/02/21 00:41:07;;;;;;;117.75;79.00;;;;;;;;;;5010843;28;20795;-52
2024/02/21 00:43:33;;;;;;;116.53;79.03;;;;;;;;;;5008801;28;20065;-54
2024/02/21 00:45:59;;;;;;;114.55;81.25;;;;;;;;;;5011231;28;20046;-52
2024/02/21 00:48:25;;;;;;;119.05;83.90;;;;;;;;;;5010970;28;20079;-54
2024/02/21 00:50:51;;;;;;;116.85;81.95;;;;;;;;;;5009712;28;20050;-50
2024/02/21 00:53:17;;;;;;;117.43;79.60;;;;;;;;;;5010715;28;20014;-53
2024/02/21 00:55:43;;;;;;;116.90;81.30;;;;;;;;;;5006775;28;20025;-55
2024/02/21 00:58:09;;;;;;;113.82;79.47;;;;;;;;;;5009557;28;20026;-51
2024/02/21 01:00:35;;;;;;;113.88;80.22;;;;;;;;;;5009208;28;20069;-52
2024/02/21 01:03:02;;;;;;;113.47;79.18;;;;;;;;;;5009568;28;20450;-55
2024/02/21 01:05:29;;;;;;;110.28;77.38;;;;;;;;;;5009437;28;20069;-52
2024/02/21 01:07:55;;;;;;;117.07;80.30;;;;;;;;;;5009617;28;20468;-50
2024/02/21 01:10:21;;;;;;;117.40;77.75;;;;;;;;;;5009657;28;20038;-52
2024/02/21 01:12:47;;;;;;;112.03;78.55;;;;;;;;;;5015720;28;20203;-51
2024/02/21 01:15:13;;;;;;;114.70;78.05;;;;;;;;;;5004989;28;20030;-51
2024/02/21 01:17:40;;;;;;;111.18;77.10;;;;;;;;;;5014084;28;20038;-53
2024/02/21 01:20:06;;;;;;;114.90;76.25;;;;;;;;;;5018918;28;20109;-50
2024/02/21 01:22:33;;;;;;;112.53;78.22;;;;;;;;;;5007098;28;20046;-54
2024/02/21 01:24:59;;;;;;;115.10;77.93;;;;;;;;;;5015278;28;20030;-53
2024/02/21 01:27:25;;;;;;;115.30;77.47;;;;;;;;;;5003111;28;20025;-51
2024/02/21 01:29:50;;;;;;;110.85;79.13;;;;;;;;;;5014965;28;20041;-54
2024/02/21 01:32:17;;;;;;;107.35;76.20;;;;;;;;;;5012940;28;20026;-50
2024/02/21 01:34:43;;;;;;;118.65;77.22;;;;;;;;;;5021665;28;20030;-54
2024/02/21 01:37:09;;;;;;;113.07;77.85;;;;;;;;;;5014200;28;20109;-55
2024/02/21 01:39:35;;;;;;;115.65;79.15;;;;;;;;;;5012449;28;20110;-51
2024/02/21 01:42:01;;;;;;;115.28;79.53;;;;;;;;;;5014465;28;20125;-52
2024/02/21 01:44:27;;;;;;;109.22;75.72;;;;;;;;;;5010629;28;20472;-52
2024/02/21 01:46:53;;;;;;;110.50;78.50;;;;;;;;;;5014695;28;20097;-51
2024/02/21 01:49:20;;;;;;;107.35;75.53;;;;;;;;;;5014653;28;20030;-56
2024/02/21 01:51:46;;;;;;;109.32;76.18;;;;;;;;;;5014720;28;20021;-54
2024/02/21 01:54:13;;;;;;;114.97;77.80;;;;;;;;;;5014572;28;20053;-51
2024/02/21 01:56:40;;;;;;;105.25;75.28;;;;;;;;;;5013551;28;20129;-52
2024/02/21 01:59:06;;;;;;;109.57;75.55;;;;;;;;;;5010451;28;20038;-52
2024/02/21 02:01:32;;;;;;;106.65;73.43;;;;;;;;;;5009687;28;20084;-56
2024/02/21 02:03:59;;;;;;;105.88;73.78;;;;;;;;;;5013796;28;20026;-55
2024/02/21 02:06:25;;;;;;;104.35;72.25;;;;;;;;;;5012880;28;20440;-53
2024/02/21 02:08:51;;;;;;;104.38;73.75;;;;;;;;;;5013495;28;20029;-55
2024/02/21 02:11:17;;;;;;;100.68;70.95;;;;;;;;;;5014147;28;20026;-55
2024/02/21 02:13:44;;;;;;;103.55;68.63;;;;;;;;;;5014197;28;20033;-54
2024/02/21 02:16:10;;;;;;;95.70;66.43;;;;;;;;;;5013149;28;20407;-55
2024/02/21 02:18:36;;;;;;;99.03;66.25;;;;;;;;;;5012659;28;20432;-54
2024/02/21 02:21:04;;;;;;;96.45;66.43;;;;;;;;;;5012449;28;20108;-53
2024/02/21 02:23:34;;;;;;;99.88;68.10;;;;;;;;;;5007131;28;20175;-50
2024/02/21 02:26:03;;;;;;;100.32;68.43;;;;;;;;;;5013259;28;20022;-50
2024/02/21 02:28:29;;;;;;;98.25;68.70;;;;;;;;;;5006489;28;20050;-54
2024/02/21 02:30:55;;;;;;;109.13;70.70;;;;;;;;;;5001018;28;20040;-55
2024/02/21 02:33:21;;;;;;;107.03;71.00;;;;;;;;;;5005735;28;20018;-55
2024/02/21 02:35:47;;;;;;;99.20;71.25;;;;;;;;;;5003579;28;20491;-53
2024/02/21 02:38:13;;;;;;;101.70;71.25;;;;;;;;;;5012266;28;20018;-55
2024/02/21 02:40:40;;;;;;;99.07;69.00;;;;;;;;;;5011710;28;20468;-53
2024/02/21 02:43:06;;;;;;;106.80;70.50;;;;;;;;;;5012977;28;20076;-51
2024/02/21 02:45:32;;;;;;;105.03;70.63;;;;;;;;;;5011595;28;20464;-51
2024/02/21 02:47:59;;;;;;;104.57;71.18;;;;;;;;;;5013230;28;20026;-51
2024/02/21 02:50:25;;;;;;;99.82;68.32;;;;;;;;;;5012083;28;20025;-52
2024/02/21 02:52:51;;;;;;;92.22;65.20;;;;;;;;;;5009995;28;20094;-51
2024/02/21 02:55:17;;;;;;;98.88;66.28;;;;;;;;;;5010142;28;20052;-54
2024/02/21 02:57:43;;;;;;;98.50;64.78;;;;;;;;;;5013050;28;20022;-50
2024/02/21 03:00:11;;;;;;;91.90;62.95;;;;;;;;;;5014489;28;20547;-50
2024/02/21 03:02:43;;;;;;;95.75;65.00;;;;;;;;;;5007300;28;20050;-51
2024/02/21 03:05:16;;;;;;;95.20;63.72;;;;;;;;;;5010504;28;20471;-50
2024/02/21 03:07:42;;;;;;;93.47;62.35;;;;;;;;;;5011967;28;20029;-50
2024/02/21 03:10:09;;;;;;;92.20;62.83;;;;;;;;;;5013339;28;20042;-51
2024/02/21 03:12:35;;;;;;;90.68;60.55;;;;;;;;;;5013293;28;20048;-50
2024/02/21 03:15:01;;;;;;;82.90;57.90;;;;;;;;;;5005840;28;20038;-49
2024/02/21 03:17:27;;;;;;;87.28;58.05;;;;;;;;;;4993360;28;20085;-55
2024/02/21 03:19:55;;;;;;;82.40;54.85;;;;;;;;;;5007543;28;20054;-54
2024/02/21 03:22:21;;;;;;;82.50;55.95;;;;;;;;;;5012695;28;20104;-49
2024/02/21 03:24:47;;;;;;;84.53;54.95;;;;;;;;;;5009533;28;20484;-52
2024/02/21 03:27:13;;;;;;;80.47;54.92;;;;;;;;;;5012637;28;20042;-52
2024/02/21 03:29:39;;;;;;;73.53;49.63;;;;;;;;;;5006262;28;20085;-49
2024/02/21 03:32:05;;;;;;;74.63;50.40;;;;;;;;;;5004216;28;20049;-52
2024/02/21 03:34:31;;;;;;;74.72;48.97;;;;;;;;;;5010712;28;20033;-51
2024/02/21 03:36:57;;;;;;;64.00;44.30;;;;;;;;;;5012547;28;20113;-49
2024/02/21 03:39:23;;;;;;;64.90;43.45;;;;;;;;;;5012600;28;20025;-53
2024/02/21 03:41:49;;;;;;;58.17;41.65;;;;;;;;;;5012662;28;20429;-51
2024/02/21 03:44:15;;;;;;;69.25;45.33;;;;;;;;;;5012783;28;20029;-50
2024/02/21 03:46:41;;;;;;;60.13;42.53;;;;;;;;;;5012681;28;20520;-51
2024/02/21 03:49:07;;;;;;;64.35;43.20;;;;;;;;;;5011660;28;20040;-54
2024/02/21 03:51:33;;;;;;;62.08;41.72;;;;;;;;;;5003086;28;20034;-54
2024/02/21 03:53:59;;;;;;;66.18;44.15;;;;;;;;;;5012744;28;20080;-51
2024/02/21 03:56:25;;;;;;;66.72;44.63;;;;;;;;;;5012542;28;20033;-52
2024/02/21 03:58:51;;;;;;;71.05;48.67;;;;;;;;;;5012443;28;20061;-52
2024/02/21 04:01:17;;;;;;;71.40;48.17;;;;;;;;;;5012135;28;20479;-52
2024/02/21 04:03:46;;;;;;;74.82;49.83;;;;;;;;;;5003867;28;20033;-53
2024/02/21 04:06:12;;;;;;;79.72;51.85;;;;;;;;;;5012023;28;20551;-53
2024/02/21 04:08:38;;;;;;;74.78;50.47;;;;;;;;;;5008016;28;20029;-54
2024/02/21 04:11:04;;;;;;;73.60;50.33;;;;;;;;;;5012151;28;20538;-55
2024/02/21 04:13:30;;;;;;;81.78;52.97;;;;;;;;;;5011183;28;20148;-52
2024/02/21 04:15:56;;;;;;;81.25;53.92;;;;;;;;;;5009862;28;20022;-54
2024/02/21 04:18:22;;;;;;;79.00;52.85;;;;;;;;;;5005989;28;20022;-53
2024/02/21 04:20:48;;;;;;;72.80;48.67;;;;;;;;;;5012086;28;20105;-52
2024/02/21 04:23:14;;;;;;;73.18;48.60;;;;;;;;;;5011655;28;20461;-50
2024/02/21 04:25:40;;;;;;;73.50;47.20;;;;;;;;;;5025935;28;20045;-51
2024/02/21 04:28:06;;;;;;;71.18;45.05;;;;;;;;;;5004270;28;20414;-51
2024/02/21 04:30:32;;;;;;;68.10;45.72;;;;;;;;;;5020046;28;20212;-52
2024/02/21 04:32:58;;;;;;;66.13;46.08;;;;;;;;;;5008878;28;20033;-50
2024/02/21 04:35:24;;;;;;;64.70;43.60;;;;;;;;;;5011073;28;20494;-53
2024/02/21 04:37:50;;;;;;;64.90;43.47;;;;;;;;;;5000397;28;20031;-52
2024/02/21 04:40:16;;;;;;;66.88;42.70;;;;;;;;;;5005173;28;20030;-54
2024/02/21 04:42:42;;;;;;;60.75;41.17;;;;;;;;;;5011376;28;20121;-53
2024/02/21 04:45:09;;;;;;;60.42;41.55;;;;;;;;;;5006878;28;20500;-52
2024/02/21 04:47:35;;;;;;;68.13;42.67;;;;;;;;;;5011576;28;20022;-49
2024/02/21 04:50:01;;;;;;;59.28;39.70;;;;;;;;;;5011798;28;20439;-53
2024/02/21 04:52:27;;;;;;;59.45;40.28;;;;;;;;;;5011723;28;20026;-54
2024/02/21 04:54:53;;;;;;;58.25;38.05;;;;;;;;;;5011606;28;20045;-50
2024/02/21 04:57:19;;;;;;;60.45;38.00;;;;;;;;;;5011960;28;20032;-53
2024/02/21 04:59:47;;;;;;;61.75;38.05;;;;;;;;;;4996893;28;20057;-53
2024/02/21 05:02:12;;;;;;;61.40;38.00;;;;;;;;;;5004694;28;20021;-54
2024/02/21 05:04:41;;;;;;;58.38;38.53;;;;;;;;;;5011605;28;20030;-54
2024/02/21 05:07:07;;;;;;;58.42;39.35;;;;;;;;;;5011584;28;20492;-53
2024/02/21 05:09:33;;;;;;;57.78;37.88;;;;;;;;;;5011283;28;20058;-52
2024/02/21 05:11:59;;;;;;;58.88;40.13;;;;;;;;;;5011664;28;20395;-53
2024/02/21 05:14:26;;;;;;;52.47;37.08;;;;;;;;;;5011417;28;20026;-52
2024/02/21 05:16:52;;;;;;;56.88;37.25;;;;;;;;;;5011724;28;20018;-55
2024/02/21 05:19:18;;;;;;;55.70;36.67;;;;;;;;;;5010068;28;20431;-53
2024/02/21 05:21:44;;;;;;;55.10;34.78;;;;;;;;;;5011330;28;20105;-54
2024/02/21 05:24:10;;;;;;;52.30;35.95;;;;;;;;;;5009104;28;20018;-53
2024/02/21 05:26:36;;;;;;;53.40;36.55;;;;;;;;;;5013518;28;20053;-53
2024/02/21 05:29:02;;;;;;;51.63;34.92;;;;;;;;;;5011580;28;20434;-54
2024/02/21 05:31:43;;;;;;;49.72;34.20;;;;;;;;;;5002035;28;20199;-55
2024/02/21 05:34:09;;;;;;;50.55;34.63;;;;;;;;;;5011295;28;20476;-53
2024/02/21 05:36:35;;;;;;;54.13;35.00;;;;;;;;;;5010552;28;20034;-53
2024/02/21 05:39:01;;;;;;;53.63;35.30;;;;;;;;;;5006202;28;20372;-53
2024/02/21 05:41:27;;;;;;;46.95;32.72;;;;;;;;;;5005498;28;20133;-54
2024/02/21 05:43:53;;;;;;;50.95;34.50;;;;;;;;;;5006447;28;20034;-53
2024/02/21 05:46:22;;;;;;;49.33;33.40;;;;;;;;;;5007336;28;20030;-50
2024/02/21 05:48:48;;;;;;;52.58;32.78;;;;;;;;;;5005476;28;20148;-54
2024/02/21 05:51:14;;;;;;;39.63;28.40;;;;;;;;;;5010928;28;20108;-49
2024/02/21 05:53:41;;;;;;;43.33;29.23;;;;;;;;;;5011039;28;20057;-52
2024/02/21 05:56:13;;;;;;;46.53;30.42;;;;;;;;;;5011175;28;20480;-54
2024/02/21 05:58:39;;;;;;;46.95;30.52;;;;;;;;;;5013409;28;20120;-54
2024/02/21 06:01:06;;;;;;;43.65;28.25;;;;;;;;;;5014698;28;20026;-55
2024/02/21 06:03:33;;;;;;;41.92;28.67;;;;;;;;;;5014311;28;20017;-55
2024/02/21 06:05:59;;;;;;;41.50;27.70;;;;;;;;;;5014662;28;20348;-55
2024/02/21 06:08:25;;;;;;;38.70;25.98;;;;;;;;;;5014176;28;20072;-51
2024/02/21 06:10:54;;;;;;;32.72;21.98;;;;;;;;;;5015431;28;20065;-55
2024/02/21 06:13:29;;;;;;;30.13;19.73;;;;;;;;;;5014302;28;20476;-54
2024/02/21 06:15:55;;;;;;;;;;;;;;;;;;5010435;28;20427;-55
2024/02/21 06:18:21;;;;;;;33.83;18.60;;;;;;;;;;5009408;28;19912;-53
2024/02/21 06:20:47;;;;;;;33.17;20.77;;;;;;;;;;5011209;28;20046;-53
2024/02/21 06:23:15;;;;;;;32.35;20.58;;;;;;;;;;5009538;28;20029;-55
2024/02/21 06:25:41;;;;;;;34.17;21.92;;;;;;;;;;5012698;28;20018;-54
2024/02/21 06:28:07;;;;;;;35.58;23.70;;;;;;;;;;5012621;28;20026;-52
2024/02/21 06:30:33;;;;;;;38.85;24.77;;;;;;;;;;5013356;28;20128;-54
2024/02/21 06:32:59;;;;;;;36.22;25.80;;;;;;;;;;5013718;28;20033;-52
2024/02/21 06:35:25;;;;;;;41.95;26.98;;;;;;;;;;5013856;28;20032;-50
2024/02/21 06:37:54;;;;;;;40.20;26.58;;;;;;;;;;5028591;28;20026;-52
2024/02/21 06:40:24;;;;;;;40.75;27.77;;;;;;;;;;5028245;28;20056;-54
2024/02/21 06:42:50;;;;;;;43.88;28.25;;;;;;;;;;5010008;28;20033;-54
2024/02/21 06:45:16;;;;;;;50.25;29.65;;;;;;;;;;5012408;28;20052;-54
2024/02/21 06:47:42;;;;;;;46.45;27.92;;;;;;;;;;5001038;28;20116;-51
2024/02/21 06:50:09;;;;;;;48.25;31.60;;;;;;;;;;5013414;28;20046;-53
2024/02/21 06:52:35;;;;;;;48.33;31.50;;;;;;;;;;5012585;28;20029;-55
2024/02/21 06:55:01;;;;;;;48.15;32.95;;;;;;;;;;5013508;28;20029;-52
2024/02/21 06:57:27;;;;;;;48.97;31.90;;;;;;;;;;5002857;28;20030;-56
2024/02/21 06:59:53;;;;;;;47.75;31.58;;;;;;;;;;5009713;28;20180;-56
2024/02/21 07:02:19;;;;;;;47.55;30.75;;;;;;;;;;5013175;28;20108;-53
2024/02/21 07:04:45;;;;;;;42.72;29.70;;;;;;;;;;5013472;28;20056;-55
2024/02/21 07:07:11;;;;;;;44.53;28.58;;;;;;;;;;5012638;28;20393;-56
2024/02/21 07:09:37;;;;;;;46.90;31.60;;;;;;;;;;5012399;28;20040;-50
2024/02/21 07:12:04;;;;;;;46.33;31.10;;;;;;;;;;5008570;28;20030;-56
2024/02/21 07:14:30;;;;;;;48.53;31.77;;;;;;;;;;5007924;28;20113;-56
2024/02/21 07:16:57;;;;;;;50.03;33.97;;;;;;;;;;5009406;28;20172;-56
2024/02/21 07:19:23;;;;;;;48.15;33.50;;;;;;;;;;5012038;28;20464;-55
2024/02/21 07:21:49;;;;;;;47.28;32.67;;;;;;;;;;5013365;28;20137;-55
2024/02/21 07:24:15;;;;;;;48.97;31.73;;;;;;;;;;5010438;28;20123;-56
2024/02/21 07:26:44;;;;;;;47.50;31.77;;;;;;;;;;5010188;28;20447;-56
2024/02/21 07:29:11;;;;;;;55.20;33.72;;;;;;;;;;5024793;28;20030;-54
2024/02/21 07:31:43;;;;;;;54.75;37.17;;;;;;;;;;5006650;28;20875;-51
2024/02/21 07:34:10;;;;;;;56.22;35.03;;;;;;;;;;5008937;28;20025;-56
2024/02/21 07:36:37;;;;;;;56.63;35.22;;;;;;;;;;5018009;28;20426;-56
2024/02/21 07:39:04;;;;;;;59.60;36.53;;;;;;;;;;5012745;28;20029;-56
2024/02/21 07:41:30;;;;;;;56.10;38.70;;;;;;;;;;5020212;28;20025;-54
2024/02/21 07:43:56;;;;;;;55.28;35.63;;;;;;;;;;5021385;28;20048;-56
2024/02/21 07:46:22;;;;;;;59.03;37.33;;;;;;;;;;5002939;28;20033;-63
2024/02/21 07:48:49;;;;;;;54.67;34.83;;;;;;;;;;4998080;28;20022;-63
2024/02/21 07:51:19;;;;;;;55.03;35.42;;;;;;;;;;5008730;28;20138;-61
2024/02/21 07:53:46;;;;;;;50.60;32.53;;;;;;;;;;5010286;28;20022;-59
2024/02/21 07:56:12;;;;;;;46.10;31.73;;;;;;;;;;4998849;28;20034;-59
2024/02/21 07:58:38;;;;;;;44.90;30.23;;;;;;;;;;5006712;28;20072;-59
2024/02/21 08:01:04;;;;;;;50.33;30.38;;;;;;;;;;5024645;28;20041;-64
2024/02/21 08:03:30;;;;;;;41.45;27.58;;;;;;;;;;5005566;28;20099;-63
2024/02/21 08:05:56;;;;;;;38.65;26.58;;;;;;;;;;5011616;28;20047;-55
2024/02/21 08:08:22;;;;;;;41.47;25.90;;;;;;;;;;5007180;28;20027;-65
2024/02/21 08:10:49;;;;;;;43.20;26.17;;;;;;;;;;4995912;28;20129;-59
2024/02/21 08:13:15;;;;;;;45.05;27.10;;;;;;;;;;5000213;28;20036;-60
2024/02/21 08:15:41;;;;;;;36.28;24.70;;;;;;;;;;5003139;28;20140;-59
2024/02/21 08:18:08;;;;;;;37.88;24.15;;;;;;;;;;5007150;28;20507;-64
2024/02/21 08:20:35;;;;;;;40.65;26.20;;;;;;;;;;5006847;28;20088;-61
2024/02/21 08:23:01;;;;;;;38.67;24.83;;;;;;;;;;5008540;28;20143;-61
2024/02/21 08:25:27;;;;;;;38.35;26.52;;;;;;;;;;5020780;28;20028;-61
2024/02/21 08:27:56;;;;;;;40.42;26.20;;;;;;;;;;5009948;28;20424;-61
2024/02/21 08:30:22;;;;;;;39.22;25.38;;;;;;;;;;5005926;28;20034;-61
2024/02/21 08:32:48;;;;;;;39.25;25.17;;;;;;;;;;5007039;28;20494;-67
2024/02/21 08:35:14;;;;;;;39.67;24.63;;;;;;;;;;5002825;28;20105;-57
2024/02/21 08:37:40;;;;;;;39.90;28.02;;;;;;;;;;5001298;28;20571;-59
2024/02/21 08:40:08;;;;;;;36.15;25.30;;;;;;;;;;5018927;28;20046;-60
2024/02/21 08:42:34;;;;;;;34.92;24.77;;;;;;;;;;5003905;28;20030;-69
2024/02/21 08:45:00;;;;;;;36.58;23.23;;;;;;;;;;4999400;28;20494;-60
2024/02/21 08:47:27;;;;;;;40.92;24.90;;;;;;;;;;5003539;28;20025;-65
2024/02/21 08:49:53;;;;;;;43.97;24.65;;;;;;;;;;5001668;28;20447;-64
2024/02/21 08:52:19;;;;;;;39.65;24.15;;;;;;;;;;5005801;28;20514;-66
2024/02/21 08:54:45;;;;;;;41.92;24.90;;;;;;;;;;5004928;28;20079;-73
2024/02/21 08:57:13;;;;;;;43.85;25.85;;;;;;;;;;5003216;28;20088;-55
2024/02/21 08:59:39;;;;;;;40.50;25.52;;;;;;;;;;4999254;28;20053;-53
2024/02/21 09:02:07;;;;;;;44.88;25.38;;;;;;;;;;5005941;28;20022;-60
2024/02/21 09:04:33;;;;;;;38.85;24.92;;;;;;;;;;5014557;28;20105;-53
2024/02/21 09:06:59;;;;;;;40.78;25.38;;;;;;;;;;5004514;28;20095;-68
2024/02/21 09:09:25;;;;;;;38.65;23.90;;;;;;;;;;5003031;28;20034;-61
2024/02/21 09:11:51;;;;;;;35.47;24.10;;;;;;;;;;5023599;28;20362;-65
2024/02/21 09:14:17;;;;;;;42.20;25.85;;;;;;;;;;5019076;28;20026;-61
2024/02/21 09:16:44;;;;;;;39.92;24.60;;;;;;;;;;4997794;28;20112;-70
2024/02/21 09:19:11;;;;;;;34.85;23.80;;;;;;;;;;5004712;28;20026;-68
2024/02/21 09:21:38;;;;;;;40.15;24.30;;;;;;;;;;5005877;28;20026;-59
2024/02/21 09:24:04;;;;;;;43.05;28.98;;;;;;;;;;5008547;28;20038;-62
2024/02/21 09:26:30;;;;;;;44.90;28.10;;;;;;;;;;4995929;28;20031;-67
2024/02/21 09:28:56;;;;;;;44.90;28.63;;;;;;;;;;5008845;28;20045;-61
2024/02/21 09:31:22;;;;;;;41.13;26.33;;;;;;;;;;5006688;28;20048;-60
2024/02/21 09:33:48;;;;;;;35.75;26.08;;;;;;;;;;5013578;28;20073;-61
2024/02/21 09:36:14;;;;;;;38.20;25.42;;;;;;;;;;5007213;28;20041;-64
2024/02/21 09:38:41;;;;;;;39.80;25.05;;;;;;;;;;5026714;28;20026;-61
2024/02/21 09:41:07;;;;;;;41.63;26.90;;;;;;;;;;5006544;28;20026;-62
2024/02/21 09:43:34;;;;;;;37.28;25.23;;;;;;;;;;5012097;28;20041;-67
2024/02/21 09:46:01;;;;;;;44.90;27.35;;;;;;;;;;5009771;28;20033;-62
2024/02/21 09:48:42;;;;;;;42.35;28.70;;;;;;;;;;5010619;28;20030;-62
2024/02/21 09:51:09;;;;;;;42.10;28.08;;;;;;;;;;5006230;28;20042;-61
2024/02/21 09:53:38;;;;;;;43.35;28.33;;;;;;;;;;5007418;28;20428;-60
2024/02/21 09:56:06;;;;;;;46.08;29.25;;;;;;;;;;5007328;28;20390;-64
2024/02/21 09:58:33;;;;;;;39.40;27.92;;;;;;;;;;5010123;28;20018;-66
2024/02/21 10:01:00;;;;;;;35.90;25.05;;;;;;;;;;5022668;28;20402;-62
2024/02/21 10:03:26;;;;;;;38.33;25.65;;;;;;;;;;5001827;28;20037;-68
2024/02/21 10:05:52;;;;;;;37.28;26.08;;;;;;;;;;5014142;28;20044;-63
2024/02/21 10:08:20;;;;;;;40.63;26.52;;;;;;;;;;5010628;28;20026;-62
2024/02/21 10:10:46;;;;;;;41.30;25.90;;;;;;;;;;5005962;28;20495;-61
2024/02/21 10:13:25;;;;;;;37.75;24.15;;;;;;;;;;5001947;28;20022;-62
2024/02/21 10:16:01;;;;;;;42.47;29.42;;;;;;;;;;5017462;28;20459;-62
2024/02/21 10:18:27;;;;;;;45.17;31.33;;;;;;;;;;5000168;28;20113;-65
2024/02/21 10:21:00;;;;;;;41.28;27.67;;;;;;;;;;5009980;28;20061;-65
2024/02/21 10:23:26;;;;;;;42.08;29.00;;;;;;;;;;5010859;28;20480;-56
2024/02/21 10:25:53;;;;;;;43.42;29.75;;;;;;;;;;5009846;28;20046;-60
2024/02/21 10:28:23;;;;;;;49.63;32.10;;;;;;;;;;5010678;28;20381;-61
2024/02/21 10:30:52;;;;;;;47.00;31.20;;;;;;;;;;5000484;28;20042;-66
2024/02/21 10:33:21;;;;;;;47.53;32.38;;;;;;;;;;5008703;28;20133;-56
2024/02/21 10:35:49;;;;;;;55.00;36.70;;;;;;;;;;5005880;28;20042;-65
2024/02/21 10:38:15;;;;;;;52.55;32.92;;;;;;;;;;4993358;28;20068;-64
2024/02/21 10:40:41;;;;;;;47.38;34.35;;;;;;;;;;5010347;28;20500;-66
2024/02/21 10:43:09;;;;;;;49.47;31.65;;;;;;;;;;4993283;28;20026;-69
2024/02/21 10:45:36;;;;;;;54.55;35.80;;;;;;;;;;5006577;28;20057;-66
2024/02/21 10:48:09;;;;;;;49.17;34.17;;;;;;;;;;5009188;28;20022;-64
2024/02/21 10:50:43;;;;;;;44.28;31.73;;;;;;;;;;5016516;28;20034;-64
2024/02/21 10:53:24;;;;;;;47.55;32.58;;;;;;;;;;5001096;28;20472;-69
2024/02/21 10:55:56;;;;;;;48.08;33.17;;;;;;;;;;5016553;28;20723;-66
2024/02/21 10:58:22;;;;;;;51.15;33.88;;;;;;;;;;5006185;28;20026;-69
2024/02/21 11:00:49;;;;;;;48.08;33.88;;;;;;;;;;4997390;28;20057;-60
2024/02/21 11:03:15;;;;;;;45.95;30.10;;;;;;;;;;5018837;28;20116;-62
2024/02/21 11:05:45;;;;;;;42.83;30.08;;;;;;;;;;5011466;28;20049;-63
2024/02/21 11:08:11;;;;;;;48.10;32.80;;;;;;;;;;5011637;28;20022;-62
2024/02/21 11:10:40;;;;;;;48.90;32.63;;;;;;;;;;5009612;28;20034;-59
2024/02/21 11:13:08;;;;;;;50.63;33.83;;;;;;;;;;5022159;28;20022;-60
2024/02/21 11:15:34;;;;;;;49.33;33.03;;;;;;;;;;5004994;28;20037;-50
2024/02/21 11:18:00;;;;;;;46.72;33.50;;;;;;;;;;5010180;28;20433;-57
2024/02/21 11:20:33;;;;;;;52.28;35.60;;;;;;;;;;5005071;28;20117;-64
2024/02/21 11:22:59;;;;;;;56.72;38.15;;;;;;;;;;5010529;28;20033;-63
2024/02/21 11:25:25;;;;;;;55.13;39.30;;;;;;;;;;5005128;28;20038;-63
2024/02/21 11:27:59;;;;;;;55.30;38.90;;;;;;;;;;5016679;28;20403;-68
2024/02/21 11:30:31;;;;;;;57.35;40.08;;;;;;;;;;5016888;28;20037;-64
2024/02/21 11:33:03;;;;;;;62.20;41.20;;;;;;;;;;5008467;28;20022;-71
2024/02/21 11:35:33;;;;;;;61.63;44.28;;;;;;;;;;4997718;28;20125;-54
2024/02/21 11:38:16;;;;;;;59.95;42.78;;;;;;;;;;5002652;28;20474;-57
2024/02/21 11:40:45;;;;;;;62.03;42.13;;;;;;;;;;5006617;28;20661;-55
2024/02/21 11:43:12;;;;;;;68.50;46.67;;;;;;;;;;5006414;28;20486;-66
2024/02/21 11:45:39;;;;;;;72.82;49.55;;;;;;;;;;5002234;28;20038;-63
2024/02/21 11:48:06;;;;;;;66.30;45.42;;;;;;;;;;5014183;28;20056;-62
2024/02/21 11:50:32;;;;;;;69.00;47.65;;;;;;;;;;5011967;28;20052;-62
2024/02/21 11:52:58;;;;;;;69.53;47.65;;;;;;;;;;5015912;28;20033;-62
2024/02/21 11:55:24;;;;;;;63.10;45.22;;;;;;;;;;5015542;28;20021;-62
2024/02/21 11:57:50;;;;;;;63.35;44.00;;;;;;;;;;5016625;28;20450;-62
2024/02/21 12:00:20;;;;;;;61.38;44.90;;;;;;;;;;5014818;28;20046;-61
2024/02/21 12:02:46;;;;;;;65.60;44.63;;;;;;;;;;5020241;28;20032;-61
2024/02/21 12:05:12;;;;;;;69.55;46.75;;;;;;;;;;5012914;28;20045;-61
2024/02/21 12:07:53;;;;;;;63.30;44.38;;;;;;;;;;5009632;28;20026;-61
2024/02/21 12:10:19;;;;;;;66.78;48.42;;;;;;;;;;5019966;28;20056;-60
2024/02/21 12:12:46;;;;;;;75.13;48.58;;;;;;;;;;5020487;28;20146;-61
2024/02/21 12:15:12;;;;;;;72.22;52.28;;;;;;;;;;5001744;28;20503;-61
2024/02/21 12:17:38;;;;;;;74.95;53.22;;;;;;;;;;5006852;28;20022;-60
2024/02/21 12:20:08;;;;;;;75.30;52.72;;;;;;;;;;5018594;28;20111;-61
2024/02/21 12:22:36;;;;;;;75.40;52.90;;;;;;;;;;5011912;28;20425;-61
2024/02/21 12:25:07;;;;;;;73.43;51.90;;;;;;;;;;5011871;28;20479;-60
2024/02/21 12:27:34;;;;;;;79.13;55.15;;;;;;;;;;5012007;28;20030;-60
2024/02/21 12:30:01;;;;;;;76.18;55.85;;;;;;;;;;5020722;28;20034;-60
2024/02/21 12:32:27;;;;;;;76.97;54.80;;;;;;;;;;5026841;28;20040;-60
2024/02/21 12:34:53;;;;;;;76.93;55.88;;;;;;;;;;5022229;28;20125;-60
2024/02/21 12:37:19;;;;;;;79.25;56.78;;;;;;;;;;5004290;28;20044;-60
2024/02/21 12:39:45;;;;;;;78.03;55.95;;;;;;;;;;5021911;28;20140;-60
2024/02/21 12:42:11;;;;;;;78.90;55.83;;;;;;;;;;5012437;28;20033;-60
2024/02/21 12:44:38;;;;;;;79.07;55.03;;;;;;;;;;5011846;28;20152;-60
2024/02/21 12:47:04;;;;;;;75.90;54.30;;;;;;;;;;4997538;28;20093;-60
2024/02/21 12:49:30;;;;;;;79.53;55.53;;;;;;;;;;5011782;28;20026;-60
2024/02/21 12:51:56;;;;;;;73.78;53.55;;;;;;;;;;5012099;28;20176;-60
2024/02/21 12:54:22;;;;;;;79.85;53.20;;;;;;;;;;5007379;28;20531;-60
2024/02/21 12:56:48;;;;;;;76.97;55.50;;;;;;;;;;5001620;28;20097;-60
2024/02/21 12:59:14;;;;;;;78.53;54.20;;;;;;;;;;5017753;28;20127;-59
2024/02/21 13:01:40;;;;;;;78.75;55.22;;;;;;;;;;5011495;28;20028;-60
2024/02/21 13:04:06;;;;;;;75.95;52.75;;;;;;;;;;5009871;28;20018;-60
2024/02/21 13:06:32;;;;;;;75.47;53.78;;;;;;;;;;5011789;28;20103;-60
2024/02/21 13:08:59;;;;;;;71.55;53.08;;;;;;;;;;5015695;28;20026;-60
2024/02/21 13:11:28;;;;;;;79.60;55.15;;;;;;;;;;5013379;28;20045;-60
2024/02/21 13:13:54;;;;;;;75.90;53.60;;;;;;;;;;5012830;28;20049;-60
2024/02/21 13:16:20;;;;;;;76.70;53.88;;;;;;;;;;5008806;28;20054;-60
2024/02/21 13:18:47;;;;;;;73.00;52.33;;;;;;;;;;5008871;28;20023;-60
2024/02/21 13:21:13;;;;;;;77.18;53.83;;;;;;;;;;5037762;28;20472;-60
2024/02/21 13:23:40;;;;;;;77.72;54.08;;;;;;;;;;5015338;28;20052;-60
2024/02/21 13:26:06;;;;;;;77.30;53.95;;;;;;;;;;5006101;28;20091;-59
2024/02/21 13:28:32;;;;;;;82.50;54.58;;;;;;;;;;5006228;28;20034;-58
2024/02/21 13:30:58;;;;;;;78.68;55.00;;;;;;;;;;5013086;28;20034;-58
2024/02/21 13:33:24;;;;;;;76.60;52.65;;;;;;;;;;5007690;28;20118;-58
2024/02/21 13:35:50;;;;;;;86.00;53.08;;;;;;;;;;5021956;28;20457;-57
2024/02/21 13:38:18;;;;;;;76.32;54.95;;;;;;;;;;5013226;28;20018;-56
2024/02/21 13:40:44;;;;;;;74.28;54.03;;;;;;;;;;4998792;28;20041;-70
2024/02/21 13:43:11;;;;;;;76.28;54.35;;;;;;;;;;5006400;28;20060;-62
2024/02/21 13:45:37;;;;;;;76.15;53.45;;;;;;;;;;5008878;28;20038;-60
2024/02/21 13:48:06;;;;;;;77.70;55.47;;;;;;;;;;5009571;28;20080;-64
2024/02/21 13:50:34;;;;;;;77.25;56.40;;;;;;;;;;5007577;28;20136;-66
2024/02/21 13:53:01;;;;;;;73.32;52.97;;;;;;;;;;5007488;28;20506;-68
2024/02/21 13:55:27;;;;;;;75.57;54.08;;;;;;;;;;5017739;28;20034;-62
2024/02/21 13:57:53;;;;;;;73.45;53.08;;;;;;;;;;5011174;28;20033;-64
2024/02/21 14:00:20;;;;;;;81.35;54.42;;;;;;;;;;5007039;28;20061;-65
2024/02/21 14:02:46;;;;;;;75.18;52.95;;;;;;;;;;5013807;28;20026;-67
2024/02/21 14:05:14;;;;;;;74.15;53.33;;;;;;;;;;5007165;28;20025;-73
2024/02/21 14:07:58;;;;;;;79.82;56.35;;;;;;;;;;5013618;28;20077;-68
2024/02/21 14:10:25;;;;;;;78.13;52.55;;;;;;;;;;5006051;28;20030;-67
2024/02/21 14:12:54;;;;;;;76.50;53.92;;;;;;;;;;5004140;28;20101;-67
2024/02/21 14:15:21;;;;;;;81.47;56.22;;;;;;;;;;5009978;28;20202;-70